createdAt,value
2024-05-09T00:00:30.775Z,1.39
2024-05-09T00:03:03.064Z,1.46
2024-05-09T00:05:29.951Z,1.51
2024-05-09T00:07:56.693Z,1.44
2024-05-09T00:10:32.613Z,1.37
2024-05-09T00:13:02.546Z,1.47
2024-05-09T00:15:29.309Z,1.49
2024-05-09T00:17:56.215Z,1.60
2024-05-09T00:20:28.558Z,1.38
2024-05-09T00:23:03.067Z,1.48
2024-05-09T00:25:29.800Z,1.49
2024-05-09T00:27:56.472Z,1.48
2024-05-09T00:30:31.630Z,1.37
2024-05-09T00:33:02.101Z,1.39
2024-05-09T00:35:29.167Z,1.55
2024-05-09T00:37:55.958Z,1.43
2024-05-09T00:40:30.963Z,1.52
2024-05-09T00:43:05.203Z,1.34
2024-05-09T00:45:31.922Z,1.31
2024-05-09T00:47:59.005Z,1.52
2024-05-09T00:50:34.053Z,1.53
2024-05-09T00:53:03.559Z,1.39
2024-05-09T00:55:30.375Z,1.38
2024-05-09T00:57:57.049Z,1.25
2024-05-09T01:00:31.486Z,1.41
2024-05-09T01:03:05.350Z,1.52
2024-05-09T01:05:32.507Z,1.52
2024-05-09T01:07:59.361Z,1.60
2024-05-09T01:10:33.546Z,1.25
2024-05-09T01:13:02.030Z,1.40
2024-05-09T01:15:28.817Z,1.49
2024-05-09T01:17:55.960Z,1.41
2024-05-09T01:20:31.883Z,1.39
2024-05-09T01:23:07.110Z,1.48
2024-05-09T01:25:33.947Z,1.64
2024-05-09T01:28:00.687Z,1.50
2024-05-09T01:30:33.963Z,1.45
2024-05-09T01:33:03.218Z,1.48
2024-05-09T01:35:30.271Z,1.53
2024-05-09T01:37:57.057Z,1.55
2024-05-09T01:40:33.337Z,1.66
2024-05-09T01:43:04.419Z,1.66
2024-05-09T01:45:31.118Z,1.52
2024-05-09T01:47:58.027Z,1.68
2024-05-09T01:50:36.210Z,1.57
2024-05-09T01:53:06.737Z,1.51
2024-05-09T01:55:33.534Z,1.75
2024-05-09T01:58:00.255Z,1.68
2024-05-09T02:00:36.346Z,1.64
2024-05-09T02:03:06.980Z,1.76
2024-05-09T02:05:34.050Z,1.58
2024-05-09T02:08:00.822Z,1.65
2024-05-09T02:10:32.474Z,1.66
2024-05-09T02:13:00.091Z,1.74
2024-05-09T02:15:26.846Z,1.78
2024-05-09T02:17:53.876Z,1.70
2024-05-09T02:20:30.147Z,1.87
2024-05-09T02:23:02.557Z,1.63
2024-05-09T02:25:29.483Z,1.70
2024-05-09T02:27:56.154Z,1.95
2024-05-09T02:30:30.565Z,1.64
2024-05-09T02:33:05.458Z,1.75
2024-05-09T02:35:32.407Z,1.71
2024-05-09T02:37:59.207Z,1.85
2024-05-09T02:40:35.030Z,1.75
2024-05-09T02:43:04.376Z,1.74
2024-05-09T02:45:31.063Z,1.73
2024-05-09T02:47:58.011Z,1.85
2024-05-09T02:50:33.519Z,1.70
2024-05-09T02:53:04.920Z,1.48
2024-05-09T02:55:31.756Z,1.67
2024-05-09T02:57:58.477Z,1.73
2024-05-09T03:00:34.290Z,1.68
2024-05-09T03:03:05.909Z,1.65
2024-05-09T03:05:32.951Z,1.82
2024-05-09T03:07:59.743Z,1.75
2024-05-09T03:10:29.038Z,1.59
2024-05-09T03:13:01.247Z,2.04
2024-05-09T03:15:27.949Z,1.90
2024-05-09T03:17:54.742Z,2.02
2024-05-09T03:20:27.317Z,1.73
2024-05-09T03:22:57.763Z,1.94
2024-05-09T03:25:24.560Z,1.85
2024-05-09T03:27:51.353Z,1.86
2024-05-09T03:30:29.294Z,1.79
2024-05-09T03:33:03.226Z,1.78
2024-05-09T03:35:31.392Z,1.89
2024-05-09T03:37:58.179Z,1.93
2024-05-09T03:40:28.937Z,2.07
2024-05-09T03:42:57.427Z,1.92
2024-05-09T03:45:24.106Z,1.96
2024-05-09T03:47:51.005Z,1.99
2024-05-09T03:50:25.753Z,1.87
2024-05-09T03:52:57.255Z,1.68
2024-05-09T03:55:24.065Z,1.64
2024-05-09T03:57:50.834Z,1.79
2024-05-09T04:00:25.314Z,1.80
2024-05-09T04:02:57.907Z,1.88
2024-05-09T04:05:24.864Z,1.71
2024-05-09T04:07:51.615Z,1.88
2024-05-09T04:10:27.659Z,1.93
2024-05-09T04:12:59.143Z,1.79
2024-05-09T04:15:25.964Z,1.82
2024-05-09T04:17:52.835Z,1.91
2024-05-09T04:20:29.204Z,2.04
2024-05-09T04:23:03.855Z,1.77
2024-05-09T04:25:30.583Z,2.02
2024-05-09T04:27:57.298Z,1.87
2024-05-09T04:30:34.318Z,1.95
2024-05-09T04:33:05.605Z,1.92
2024-05-09T04:35:32.635Z,1.79
2024-05-09T04:37:59.489Z,1.69
2024-05-09T04:40:33.061Z,1.94
2024-05-09T04:43:02.635Z,1.82
2024-05-09T04:45:29.330Z,1.96
2024-05-09T04:47:56.305Z,2.00
2024-05-09T04:50:30.322Z,2.11
2024-05-09T04:53:03.672Z,2.06
2024-05-09T04:55:30.604Z,1.81
2024-05-09T04:57:57.627Z,1.98
2024-05-09T05:00:32.520Z,1.83
2024-05-09T05:03:03.730Z,1.85
2024-05-09T05:05:30.573Z,1.81
2024-05-09T05:07:57.334Z,2.22
2024-05-09T05:10:32.992Z,1.97
2024-05-09T05:13:02.338Z,2.07
2024-05-09T05:15:29.043Z,2.25
2024-05-09T05:17:55.908Z,1.98
2024-05-09T05:20:30.656Z,2.11
2024-05-09T05:23:00.311Z,1.98
2024-05-09T05:25:27.082Z,2.11
2024-05-09T05:27:53.803Z,2.21
2024-05-09T05:30:25.262Z,2.27
2024-05-09T05:32:56.126Z,2.24
2024-05-09T05:35:23.266Z,2.04
2024-05-09T05:37:50.082Z,1.99
2024-05-09T05:40:27.576Z,2.22
2024-05-09T05:42:59.839Z,2.03
2024-05-09T05:45:26.574Z,2.24
2024-05-09T05:47:53.485Z,2.23
2024-05-09T05:50:27.512Z,2.01
2024-05-09T05:52:59.837Z,2.00
2024-05-09T05:55:26.589Z,2.18
2024-05-09T05:57:53.296Z,2.27
2024-05-09T06:00:29.248Z,2.22
2024-05-09T06:03:02.350Z,2.60
2024-05-09T06:05:29.256Z,2.22
2024-05-09T06:07:56.115Z,2.27
2024-05-09T06:10:29.601Z,2.20
2024-05-09T06:13:01.690Z,2.30
2024-05-09T06:15:28.485Z,2.04
2024-05-09T06:17:55.337Z,2.30
2024-05-09T06:20:31.566Z,2.12
2024-05-09T06:23:02.659Z,2.36
2024-05-09T06:25:29.401Z,2.16
2024-05-09T06:27:56.065Z,2.30
2024-05-09T06:30:30.086Z,2.24
2024-05-09T06:33:04.061Z,2.30
2024-05-09T06:35:31.412Z,2.23
2024-05-09T06:37:58.403Z,2.27
2024-05-09T06:40:29.734Z,2.34
2024-05-09T06:43:03.132Z,2.04
2024-05-09T06:45:29.819Z,2.16
2024-05-09T06:47:56.668Z,2.42
2024-05-09T06:50:27.323Z,2.41
2024-05-09T06:52:54.939Z,2.26
2024-05-09T06:55:21.633Z,2.14
2024-05-09T06:57:48.398Z,2.46
2024-05-09T07:00:22.837Z,2.31
2024-05-09T07:02:58.469Z,2.39
2024-05-09T07:05:26.649Z,2.57
2024-05-09T07:07:53.553Z,2.31
2024-05-09T07:10:28.507Z,2.16
2024-05-09T07:12:59.441Z,2.50
2024-05-09T07:15:26.232Z,2.69
2024-05-09T07:17:53.067Z,2.77
2024-05-09T07:20:27.508Z,2.63
2024-05-09T07:23:00.830Z,2.47
2024-05-09T07:25:27.531Z,2.56
2024-05-09T07:27:54.238Z,2.81
2024-05-09T07:30:27.541Z,2.46
2024-05-09T07:33:00.266Z,2.53
2024-05-09T07:35:27.616Z,2.36
2024-05-09T07:37:54.602Z,2.19
2024-05-09T07:40:31.837Z,2.52
2024-05-09T07:43:02.368Z,2.37
2024-05-09T07:45:45.238Z,2.34
2024-05-09T07:49:45.398Z,2.44
2024-05-09T07:53:40.671Z,2.44
2024-05-09T07:56:12.146Z,2.53
2024-05-09T07:58:39.775Z,2.32
2024-05-09T08:01:06.837Z,2.34
2024-05-09T08:03:33.966Z,2.34
2024-05-09T08:06:01.005Z,2.54
2024-05-09T08:08:27.712Z,2.38
2024-05-09T08:10:54.547Z,2.50
2024-05-09T08:13:21.431Z,2.53
2024-05-09T08:15:48.192Z,2.44
2024-05-09T08:18:15.129Z,2.42
2024-05-09T08:20:42.106Z,2.25
2024-05-09T08:23:08.841Z,2.78
2024-05-09T08:25:35.552Z,2.47
2024-05-09T08:28:02.329Z,2.57
2024-05-09T08:30:33.884Z,2.65
2024-05-09T08:33:04.070Z,2.38
2024-05-09T08:35:30.937Z,2.73
2024-05-09T08:37:57.694Z,2.65
2024-05-09T08:40:31.017Z,2.76
2024-05-09T08:43:02.041Z,2.79
2024-05-09T08:45:28.978Z,2.68
2024-05-09T08:47:55.825Z,2.42
2024-05-09T08:50:31.742Z,2.54
2024-05-09T08:53:04.770Z,2.90
2024-05-09T08:55:31.487Z,2.96
2024-05-09T08:57:58.234Z,2.58
2024-05-09T09:00:34.142Z,2.78
2024-05-09T09:03:03.939Z,2.77
2024-05-09T09:05:30.879Z,3.00
2024-05-09T09:07:57.786Z,2.71
2024-05-09T09:10:29.942Z,2.72
2024-05-09T09:12:59.086Z,2.81
2024-05-09T09:15:25.786Z,2.88
2024-05-09T09:17:52.887Z,2.88
2024-05-09T09:20:26.344Z,2.88
2024-05-09T09:23:00.230Z,2.97
2024-05-09T09:25:26.977Z,2.88
2024-05-09T09:27:53.696Z,2.94
2024-05-09T09:30:31.778Z,2.63
2024-05-09T09:33:03.753Z,3.29
2024-05-09T09:35:30.541Z,3.11
2024-05-09T09:37:57.254Z,3.10
2024-05-09T09:40:31.048Z,3.04
2024-05-09T09:42:59.309Z,2.89
2024-05-09T09:45:26.110Z,2.82
2024-05-09T09:47:53.035Z,2.73
2024-05-09T09:50:27.356Z,2.95
2024-05-09T09:52:58.629Z,2.84
2024-05-09T09:55:25.427Z,2.88
2024-05-09T09:57:52.293Z,2.71
2024-05-09T10:00:24.560Z,2.68
2024-05-09T10:02:57.236Z,2.69
2024-05-09T10:05:24.429Z,2.84
2024-05-09T10:07:51.223Z,3.10
2024-05-09T10:12:46.696Z,2.87
2024-05-09T10:15:13.418Z,2.93
2024-05-09T10:17:40.391Z,2.82
2024-05-09T10:20:14.534Z,2.98
2024-05-09T10:22:47.865Z,2.80
2024-05-09T10:25:14.774Z,2.67
2024-05-09T10:27:41.542Z,2.74
2024-05-09T10:30:14.389Z,2.71
2024-05-09T10:32:44.569Z,2.54
2024-05-09T10:35:11.545Z,2.63
2024-05-09T10:37:38.371Z,2.68
2024-05-09T10:40:09.321Z,2.65
2024-05-09T10:42:40.739Z,2.42
2024-05-09T10:45:07.513Z,2.79
2024-05-09T10:47:34.383Z,2.59
2024-05-09T10:50:01.204Z,2.80
2024-05-09T10:52:28.148Z,2.56
2024-05-09T10:54:55.002Z,2.54
2024-05-09T10:57:21.881Z,2.42
2024-05-09T10:59:48.650Z,2.42
2024-05-09T11:02:15.487Z,2.80
2024-05-09T11:04:42.501Z,2.76
2024-05-09T11:07:09.323Z,2.81
2024-05-09T11:09:36.037Z,2.83
2024-05-09T11:12:02.823Z,2.59
2024-05-09T11:14:29.556Z,2.88
2024-05-09T11:16:56.407Z,2.77
2024-05-09T11:19:23.289Z,2.86
2024-05-09T11:21:50.161Z,2.83
2024-05-09T11:24:16.911Z,3.05
2024-05-09T11:26:43.598Z,2.98
2024-05-09T11:29:10.396Z,3.19
2024-05-09T11:31:37.226Z,3.15
2024-05-09T11:34:04.071Z,2.86
2024-05-09T11:36:30.979Z,2.99
2024-05-09T11:38:57.783Z,2.83
2024-05-09T11:41:24.528Z,3.16
2024-05-09T11:43:51.269Z,3.21
2024-05-09T11:46:18.174Z,3.33
2024-05-09T11:48:45.077Z,3.18
2024-05-09T11:51:11.928Z,3.07
2024-05-09T11:53:38.620Z,3.00
2024-05-09T11:56:05.294Z,2.96
2024-05-09T11:58:32.053Z,2.76
2024-05-09T12:00:58.810Z,2.85
2024-05-09T12:03:25.583Z,2.76
2024-05-09T12:05:52.478Z,3.06
2024-05-09T12:08:19.227Z,2.99
2024-05-09T12:10:46.252Z,2.61
2024-05-09T12:13:13.285Z,2.73
2024-05-09T12:15:40.068Z,2.71
2024-05-09T12:18:07.611Z,2.75
2024-05-09T12:20:37.968Z,2.77
2024-05-09T12:23:06.708Z,2.74
2024-05-09T12:25:33.494Z,2.72
2024-05-09T12:28:00.693Z,2.68
2024-05-09T12:30:35.778Z,2.51
2024-05-09T12:33:05.967Z,2.65
2024-05-09T12:35:33.007Z,2.70
2024-05-09T12:37:59.834Z,2.55
2024-05-09T12:40:34.632Z,2.79
2024-05-09T12:43:04.717Z,2.72
2024-05-09T12:45:31.877Z,2.58
2024-05-09T12:47:58.941Z,2.38
2024-05-09T12:50:31.999Z,2.49
2024-05-09T12:53:00.953Z,2.53
2024-05-09T12:55:28.555Z,2.29
2024-05-09T12:57:56.907Z,2.57
2024-05-09T13:00:28.353Z,2.44
2024-05-09T13:03:00.950Z,2.35
2024-05-09T13:05:28.139Z,2.52
2024-05-09T13:07:55.105Z,2.35
2024-05-09T13:10:29.089Z,2.59
2024-05-09T13:12:59.458Z,2.52
2024-05-09T13:15:26.515Z,2.77
2024-05-09T13:17:53.297Z,2.66
2024-05-09T13:20:29.072Z,2.41
2024-05-09T13:22:59.689Z,2.30
2024-05-09T13:25:26.444Z,2.62
2024-05-09T13:27:53.262Z,2.48
2024-05-09T13:30:28.789Z,2.36
2024-05-09T13:33:02.491Z,2.43
2024-05-09T13:35:29.362Z,2.43
2024-05-09T13:37:56.180Z,2.48
2024-05-09T13:40:30.001Z,2.22
2024-05-09T13:43:01.000Z,2.53
2024-05-09T13:45:27.832Z,2.27
2024-05-09T13:47:54.714Z,2.32
2024-05-09T13:50:30.910Z,2.62
2024-05-09T13:53:01.956Z,2.22
2024-05-09T13:55:28.886Z,2.27
2024-05-09T13:57:55.940Z,2.36
2024-05-09T14:00:37.238Z,2.41
2024-05-09T14:03:09.797Z,2.44
2024-05-09T14:05:37.044Z,2.34
2024-05-09T14:08:03.953Z,2.18
2024-05-09T14:10:31.839Z,2.18
2024-05-09T14:12:59.333Z,2.35
2024-05-09T14:15:26.065Z,2.26
2024-05-09T14:17:52.904Z,2.43
2024-05-09T14:20:29.724Z,2.47
2024-05-09T14:22:58.410Z,2.45
2024-05-09T14:25:25.249Z,2.26
2024-05-09T14:27:52.063Z,2.40
2024-05-09T14:30:26.287Z,2.45
2024-05-09T14:33:01.152Z,2.72
2024-05-09T14:35:28.110Z,3.16
2024-05-09T14:37:54.812Z,3.89
2024-05-09T14:40:31.153Z,4.92
2024-05-09T14:43:06.575Z,6.12
2024-05-09T14:45:33.527Z,6.64
2024-05-09T14:48:00.474Z,8.00
2024-05-09T14:50:34.899Z,10.64
2024-05-09T14:53:05.019Z,11.58
2024-05-09T14:55:31.967Z,10.42
2024-05-09T14:57:58.774Z,11.23
2024-05-09T15:00:29.430Z,9.90
2024-05-09T15:03:02.868Z,10.18
2024-05-09T15:05:29.915Z,10.32
2024-05-09T15:07:56.693Z,10.76
2024-05-09T15:10:31.155Z,11.07
2024-05-09T15:13:01.773Z,11.33
2024-05-09T15:15:28.529Z,9.59
2024-05-09T15:17:55.504Z,10.37
2024-05-09T15:20:30.881Z,9.98
2024-05-09T15:23:02.054Z,11.10
2024-05-09T15:25:29.098Z,12.16
2024-05-09T15:27:56.092Z,11.08
2024-05-09T15:32:52.808Z,8.99
2024-05-09T15:35:19.597Z,9.70
2024-05-09T15:37:46.297Z,8.50
2024-05-09T15:40:18.506Z,9.11
2024-05-09T15:42:52.591Z,8.93
2024-05-09T15:45:19.413Z,8.93
2024-05-09T15:47:46.223Z,7.55
2024-05-09T15:50:20.405Z,7.47
2024-05-09T15:52:55.058Z,7.30
2024-05-09T15:55:21.814Z,7.10
2024-05-09T15:57:48.608Z,6.29
2024-05-09T16:00:24.710Z,6.86
2024-05-09T16:03:00.076Z,6.40
2024-05-09T16:05:27.213Z,5.78
2024-05-09T16:07:54.063Z,5.81
2024-05-09T16:10:25.913Z,5.48
2024-05-09T16:12:58.417Z,5.99
2024-05-09T16:15:25.221Z,5.32
2024-05-09T16:17:52.032Z,4.81
2024-05-09T16:20:29.614Z,4.93
2024-05-09T16:23:04.813Z,4.54
2024-05-09T16:25:31.631Z,4.38
2024-05-09T16:27:58.540Z,4.33
2024-05-09T16:30:31.992Z,4.66
2024-05-09T16:33:02.533Z,4.37
2024-05-09T16:35:29.611Z,3.98
2024-05-09T16:37:56.400Z,4.25
2024-05-09T16:40:30.357Z,3.80
2024-05-09T16:43:04.418Z,3.67
2024-05-09T16:45:31.752Z,3.65
2024-05-09T16:47:58.926Z,3.33
2024-05-09T16:50:31.044Z,3.98
2024-05-09T16:53:00.253Z,3.61
2024-05-09T16:55:27.274Z,3.55
2024-05-09T16:57:54.245Z,3.61
2024-05-09T17:00:31.146Z,3.47
2024-05-09T17:03:06.419Z,3.28
2024-05-09T17:05:34.138Z,3.13
2024-05-09T17:08:01.392Z,3.21
2024-05-09T17:10:32.893Z,3.27
2024-05-09T17:13:02.008Z,3.17
2024-05-09T17:15:28.921Z,3.35
2024-05-09T17:17:55.771Z,3.10
2024-05-09T17:20:29.684Z,3.05
2024-05-09T17:23:00.725Z,2.75
2024-05-09T17:25:27.599Z,3.18
2024-05-09T17:27:54.611Z,2.85
2024-05-09T17:30:28.999Z,3.04
2024-05-09T17:33:01.977Z,2.91
2024-05-09T17:35:28.988Z,2.55
2024-05-09T17:37:55.739Z,2.79
2024-05-09T17:40:30.893Z,2.84
2024-05-09T17:43:01.945Z,3.14
2024-05-09T17:45:29.092Z,2.75
2024-05-09T17:47:55.982Z,3.04
2024-05-09T17:50:30.254Z,2.84
2024-05-09T17:53:01.475Z,2.79
2024-05-09T17:55:28.668Z,2.96
2024-05-09T17:57:55.662Z,2.43
2024-05-09T18:00:32.863Z,2.68
2024-05-09T18:03:05.340Z,2.56
2024-05-09T18:05:32.518Z,2.46
2024-05-09T18:07:59.536Z,2.71
2024-05-09T18:10:33.168Z,2.42
2024-05-09T18:13:04.048Z,2.76
2024-05-09T18:15:30.974Z,2.58
2024-05-09T18:17:59.861Z,2.55
2024-05-09T18:20:37.887Z,2.34
2024-05-09T18:23:10.065Z,2.51
2024-05-09T18:25:36.793Z,2.47
2024-05-09T18:28:03.644Z,2.31
2024-05-09T18:30:34.957Z,2.66
2024-05-09T18:33:03.949Z,2.43
2024-05-09T18:35:31.161Z,2.46
2024-05-09T18:37:57.865Z,2.41
2024-05-09T18:40:32.751Z,2.50
2024-05-09T18:43:02.950Z,2.54
2024-05-09T18:45:30.012Z,2.75
2024-05-09T18:47:56.944Z,2.58
2024-05-09T18:50:31.998Z,2.59
2024-05-09T18:53:03.033Z,2.52
2024-05-09T18:55:29.756Z,2.42
2024-05-09T18:57:56.664Z,2.45
2024-05-09T19:00:33.028Z,2.52
2024-05-09T19:03:03.527Z,2.62
2024-05-09T19:05:30.821Z,2.66
2024-05-09T19:07:57.695Z,2.63
2024-05-09T19:10:28.808Z,2.44
2024-05-09T19:13:00.230Z,2.60
2024-05-09T19:15:26.961Z,2.80
2024-05-09T19:17:53.749Z,2.80
2024-05-09T19:20:28.498Z,2.40
2024-05-09T19:22:59.953Z,2.67
2024-05-09T19:25:26.712Z,2.72
2024-05-09T19:27:53.429Z,2.75
2024-05-09T19:30:29.010Z,2.58
2024-05-09T19:33:03.159Z,2.75
2024-05-09T19:35:29.908Z,2.88
2024-05-09T19:37:56.581Z,2.84
2024-05-09T19:40:29.137Z,2.80
2024-05-09T19:42:58.988Z,2.86
2024-05-09T19:45:26.037Z,2.68
2024-05-09T19:47:52.928Z,2.81
2024-05-09T19:50:26.407Z,2.81
2024-05-09T19:52:59.267Z,3.27
2024-05-09T19:55:25.999Z,3.00
2024-05-09T19:57:52.753Z,3.03
2024-05-09T20:00:26.061Z,2.87
2024-05-09T20:02:56.427Z,3.21
2024-05-09T20:05:23.645Z,3.12
2024-05-09T20:07:50.442Z,2.96
2024-05-09T20:10:23.678Z,3.01
2024-05-09T20:12:53.559Z,2.93
2024-05-09T20:15:20.280Z,2.83
2024-05-09T20:17:47.098Z,3.09
2024-05-09T20:20:24.463Z,2.63
2024-05-09T20:22:59.812Z,3.00
2024-05-09T20:25:26.618Z,3.08
2024-05-09T20:27:53.373Z,3.01
2024-05-09T20:30:25.546Z,3.03
2024-05-09T20:32:58.434Z,2.96
2024-05-09T20:35:25.215Z,2.95
2024-05-09T20:37:51.969Z,3.16
2024-05-09T20:40:25.742Z,3.04
2024-05-09T20:42:58.394Z,3.08
2024-05-09T20:45:25.192Z,3.03
2024-05-09T20:47:52.003Z,3.22
2024-05-09T20:50:27.986Z,3.19
2024-05-09T20:53:02.756Z,3.36
2024-05-09T20:55:29.523Z,3.34
2024-05-09T20:57:56.354Z,3.29
2024-05-09T21:00:30.034Z,3.65
2024-05-09T21:03:04.769Z,3.76
2024-05-09T21:05:31.957Z,3.48
2024-05-09T21:07:58.829Z,3.61
2024-05-09T21:10:27.168Z,3.46
2024-05-09T21:12:56.501Z,3.28
2024-05-09T21:15:23.241Z,3.37
2024-05-09T21:17:50.032Z,3.34
2024-05-09T21:20:20.668Z,3.46
2024-05-09T21:22:51.036Z,3.46
2024-05-09T21:25:17.889Z,3.51
2024-05-09T21:27:44.743Z,3.66
2024-05-09T21:30:18.649Z,3.27
2024-05-09T21:32:54.323Z,3.77
2024-05-09T21:35:21.029Z,3.77
2024-05-09T21:37:47.723Z,3.65
2024-05-09T21:40:24.226Z,3.51
2024-05-09T21:42:58.143Z,3.79
2024-05-09T21:45:24.984Z,3.58
2024-05-09T21:47:51.725Z,3.79
2024-05-09T21:50:22.819Z,3.58
2024-05-09T21:52:55.002Z,3.51
2024-05-09T21:55:21.754Z,3.34
2024-05-09T21:57:48.627Z,3.58
2024-05-09T22:00:28.090Z,3.55
2024-05-09T22:03:01.921Z,3.33
2024-05-09T22:05:28.852Z,3.35
2024-05-09T22:07:55.655Z,3.44
2024-05-09T22:10:26.526Z,3.30
2024-05-09T22:12:59.235Z,3.54
2024-05-09T22:15:26.016Z,3.60
2024-05-09T22:17:53.419Z,3.18
2024-05-09T22:20:28.723Z,3.71
2024-05-09T22:23:02.328Z,3.21
2024-05-09T22:25:30.928Z,3.69
2024-05-09T22:27:58.648Z,3.42
2024-05-09T22:30:34.093Z,3.46
2024-05-09T22:33:04.878Z,3.42
2024-05-09T22:35:31.629Z,3.79
2024-05-09T22:37:58.339Z,4.05
2024-05-09T22:40:37.754Z,3.75
2024-05-09T22:43:11.908Z,3.45
2024-05-09T22:45:38.808Z,3.37
2024-05-09T22:48:05.768Z,3.41
2024-05-09T22:50:33.690Z,3.94
2024-05-09T22:53:00.828Z,4.68
2024-05-09T22:55:27.778Z,4.78
2024-05-09T22:57:54.601Z,4.22
2024-05-09T23:00:29.323Z,4.10
2024-05-09T23:02:58.859Z,4.08
2024-05-09T23:05:25.830Z,3.83
2024-05-09T23:07:59.285Z,3.85
2024-05-09T23:10:32.434Z,3.56
2024-05-09T23:13:03.574Z,3.99
2024-05-09T23:15:30.808Z,4.43
2024-05-09T23:17:58.392Z,4.28
2024-05-09T23:20:33.973Z,4.20
2024-05-09T23:23:05.975Z,3.97
2024-05-09T23:25:32.750Z,3.96
2024-05-09T23:27:59.603Z,3.91
2024-05-09T23:30:36.111Z,4.17
2024-05-09T23:33:06.099Z,4.06
2024-05-09T23:35:33.495Z,4.15
2024-05-09T23:38:00.326Z,3.84
2024-05-09T23:40:37.315Z,4.17
2024-05-09T23:43:07.196Z,3.84
2024-05-09T23:45:34.296Z,3.90
2024-05-09T23:48:01.573Z,3.70
2024-05-09T23:50:34.715Z,4.03
2024-05-09T23:53:04.301Z,3.52
2024-05-09T23:55:31.354Z,3.77
2024-05-09T23:57:58.309Z,3.89
